Time;durP1;ratioP1;P1;durP2;ratioP2;P2;SDS_P1;SDS_P2;PMS_P1;PMS_P2;Temp;Humidity;BMP_temperature;BMP_pressure;BME280_temperature;BME280_humidity;BME280_pressure;Samples;Min_cycle;Max_cycle;Signal;HPM_P1;HPM_P2
2022/05/07 00:01:08;;;;;;;;;;;8.60;99.90;;;;;;5049514;28;20360;-64
2022/05/07 00:03:35;;;;;;;;;;;8.60;99.90;;;;;;5049482;28;21747;-65
2022/05/07 00:06:02;;;;;;;;;;;8.50;99.90;;;;;;5053081;28;20547;-64
2022/05/07 00:08:28;;;;;;;;;;;8.50;99.90;;;;;;5049806;28;20019;-64
2022/05/07 00:10:55;;;;;;;;;;;8.40;99.90;;;;;;5049681;28;19925;-64
2022/05/07 00:13:22;;;;;;;;;;;8.30;99.90;;;;;;5051614;28;19925;-65
2022/05/07 00:18:34;;;;;;;;;;;8.00;99.90;;;;;;5046376;28;20412;-64
2022/05/07 00:21:01;;;;;;;;;;;7.90;99.90;;;;;;5049017;28;20480;-65
2022/05/07 00:23:27;;;;;;;;;;;7.70;99.90;;;;;;5047732;28;19924;-64
2022/05/07 00:25:54;;;;;;;;;;;7.60;99.90;;;;;;5043551;28;20030;-65
2022/05/07 00:28:23;;;;;;;;;;;7.50;99.90;;;;;;5051351;28;19980;-64
2022/05/07 00:30:49;;;;;;;;;;;7.40;99.90;;;;;;5050550;28;20044;-64
2022/05/07 00:33:16;;;;;;;;;;;7.40;99.90;;;;;;5045251;28;20560;-64
2022/05/07 00:35:43;;;;;;;;;;;7.40;99.90;;;;;;5042510;28;19929;-66
2022/05/07 00:38:09;;;;;;;;;;;7.30;99.90;;;;;;5054471;28;19925;-64
2022/05/07 00:40:36;;;;;;;;;;;7.30;99.90;;;;;;5049690;28;19932;-64
2022/05/07 00:43:03;;;;;;;;;;;7.20;99.90;;;;;;5051470;28;19924;-65
2022/05/07 00:45:30;;;;;;;;;;;7.10;99.90;;;;;;5081457;28;19976;-64
2022/05/07 00:47:57;;;;;;;;;;;7.00;99.90;;;;;;5051399;28;19932;-64
2022/05/07 00:53:16;;;;;;;;;;;6.90;99.90;;;;;;5045189;28;19976;-64
2022/05/07 00:55:44;;;;;;;;;;;6.90;99.90;;;;;;5046394;28;19928;-64
2022/05/07 00:58:17;;;;;;;;;;;6.80;99.90;;;;;;5043453;28;20399;-64
2022/05/07 01:00:43;;;;;;;;;;;6.90;99.90;;;;;;5050275;28;19933;-64
2022/05/07 01:03:10;;;;;;;;;;;6.90;99.90;;;;;;5049931;28;20430;-64
2022/05/07 01:05:39;;;;;;;;;;;6.90;99.90;;;;;;5051454;28;19979;-64
2022/05/07 01:08:06;;;;;;;;;;;6.90;99.90;;;;;;5047083;28;19925;-64
2022/05/07 01:10:32;;;;;;;;;;;7.00;99.90;;;;;;5049106;28;19924;-64
2022/05/07 01:12:59;;;;;;;;;;;7.00;99.90;;;;;;5049655;28;20376;-64
2022/05/07 01:15:26;;;;;;;;;;;6.90;99.90;;;;;;5050383;28;20004;-65
2022/05/07 01:17:53;;;;;;;;;;;7.00;99.90;;;;;;5048206;28;19925;-64
2022/05/07 01:20:20;;;;;;;;;;;7.10;99.90;;;;;;5050261;28;20338;-64
2022/05/07 01:22:47;;;;;;;;;;;7.30;99.90;;;;;;5048921;28;20011;-64
2022/05/07 01:25:13;;;;;;;;;;;7.40;99.90;;;;;;5048745;28;19929;-64
2022/05/07 01:27:40;;;;;;;;;;;7.50;99.90;;;;;;5047351;28;19956;-64
2022/05/07 01:30:07;;;;;;;;;;;7.60;99.90;;;;;;5048404;28;19932;-64
2022/05/07 01:32:34;;;;;;;;;;;7.60;99.90;;;;;;5047920;28;19954;-64
2022/05/07 01:35:00;;;;;;;;;;;7.60;99.90;;;;;;5049528;28;19928;-64
2022/05/07 01:37:28;;;;;;;;;;;7.50;99.90;;;;;;5045943;28;20622;-64
2022/05/07 01:39:54;;;;;;;;;;;7.40;99.90;;;;;;5051310;28;19925;-64
2022/05/07 01:42:21;;;;;;;;;;;7.30;99.90;;;;;;5063320;28;19936;-65
2022/05/07 01:44:48;;;;;;;;;;;7.10;99.90;;;;;;5067654;28;19925;-64
2022/05/07 01:50:00;;;;;;;;;;;6.90;99.90;;;;;;5050060;28;20020;-64
2022/05/07 01:52:28;;;;;;;;;;;6.70;99.90;;;;;;5049877;28;20362;-64
2022/05/07 01:54:58;;;;;;;;;;;6.60;99.90;;;;;;5049516;28;19925;-64
2022/05/07 01:57:24;;;;;;;;;;;6.60;99.90;;;;;;5049277;28;19931;-64
2022/05/07 01:59:51;;;;;;;;;;;6.50;99.90;;;;;;5039623;28;20592;-64
2022/05/07 02:02:18;;;;;;;;;;;6.40;99.90;;;;;;5049501;28;20004;-64
2022/05/07 02:04:45;;;;;;;;;;;6.30;99.90;;;;;;5047649;28;19931;-65
2022/05/07 02:07:11;;;;;;;;;;;6.20;99.90;;;;;;5065580;28;19924;-65
2022/05/07 02:09:38;;;;;;;;;;;6.20;99.90;;;;;;5051450;28;19925;-65
2022/05/07 02:12:05;;;;;;;;;;;6.10;99.90;;;;;;5050220;28;19924;-65
2022/05/07 02:14:37;;;;;;;;;;;6.20;99.90;;;;;;5047651;28;20001;-65
2022/05/07 02:17:03;;;;;;;;;;;6.30;99.90;;;;;;5045813;28;20023;-64
2022/05/07 02:19:30;;;;;;;;;;;6.40;99.90;;;;;;5045638;28;19925;-64
2022/05/07 02:21:57;;;;;;;;;;;6.50;99.90;;;;;;5048000;28;19928;-64
2022/05/07 02:24:23;;;;;;;;;;;6.60;99.90;;;;;;5048833;28;19931;-64
2022/05/07 02:26:50;;;;;;;;;;;6.60;99.90;;;;;;5049466;28;19924;-64
2022/05/07 02:29:17;;;;;;;;;;;6.70;99.90;;;;;;5046894;28;19929;-65
2022/05/07 02:32:03;;;;;;;;;;;6.80;99.90;;;;;;5046603;28;20383;-64
2022/05/07 02:34:30;;;;;;;;;;;6.90;99.90;;;;;;5046969;28;19931;-65
2022/05/07 02:36:57;;;;;;;;;;;7.00;99.90;;;;;;5045279;28;20023;-64
2022/05/07 02:39:24;;;;;;;;;;;7.10;99.90;;;;;;5050753;28;19986;-64
2022/05/07 02:44:36;;;;;;;;;;;7.10;99.90;;;;;;5053194;28;19924;-64
2022/05/07 02:47:04;;;;;;;;;;;7.00;99.90;;;;;;5050213;28;19981;-64
2022/05/07 02:49:31;;;;;;;;;;;6.90;99.90;;;;;;5050612;28;20296;-64
2022/05/07 02:51:58;;;;;;;;;;;6.70;99.90;;;;;;5049803;28;19956;-64
2022/05/07 02:54:25;;;;;;;;;;;6.60;99.90;;;;;;5042871;28;19960;-64
2022/05/07 02:56:55;;;;;;;;;;;6.40;99.90;;;;;;5053153;28;20041;-64
2022/05/07 02:59:24;;;;;;;;;;;6.30;99.90;;;;;;5053007;28;19974;-64
2022/05/07 03:01:51;;;;;;;;;;;6.10;99.90;;;;;;5051013;28;19935;-64
2022/05/07 03:04:19;;;;;;;;;;;6.10;99.90;;;;;;5052487;28;19948;-64
2022/05/07 03:06:45;;;;;;;;;;;6.10;99.90;;;;;;5050382;28;19925;-64
2022/05/07 03:09:12;;;;;;;;;;;6.10;99.90;;;;;;5078596;28;19971;-64
2022/05/07 03:11:39;;;;;;;;;;;6.10;99.90;;;;;;5051893;28;19933;-64
2022/05/07 03:14:06;;;;;;;;;;;6.20;99.90;;;;;;5051900;28;20000;-64
2022/05/07 03:16:38;;;;;;;;;;;6.30;99.90;;;;;;5053172;28;19931;-64
2022/05/07 03:19:05;;;;;;;;;;;6.30;99.90;;;;;;5049656;28;19975;-64
2022/05/07 03:21:32;;;;;;;;;;;6.40;99.90;;;;;;5050883;28;19971;-64
2022/05/07 03:23:59;;;;;;;;;;;6.40;99.90;;;;;;5051949;28;19925;-64
2022/05/07 03:26:26;;;;;;;;;;;6.50;99.90;;;;;;5051785;28;20302;-64
2022/05/07 03:28:53;;;;;;;;;;;6.70;99.90;;;;;;5041852;28;19925;-64
2022/05/07 03:31:20;;;;;;;;;;;6.70;99.90;;;;;;5056884;28;19925;-64
2022/05/07 03:33:46;;;;;;;;;;;6.70;99.90;;;;;;5050960;28;19928;-64
2022/05/07 03:36:15;;;;;;;;;;;6.70;99.90;;;;;;5047906;28;20008;-64
2022/05/07 03:38:42;;;;;;;;;;;6.60;99.90;;;;;;5047642;28;19932;-65
2022/05/07 03:41:15;;;;;;;;;;;6.60;99.90;;;;;;5051542;28;20020;-64
2022/05/07 03:43:41;;;;;;;;;;;6.50;99.90;;;;;;5052026;28;19968;-64
2022/05/07 03:46:11;;;;;;;;;;;6.60;99.90;;;;;;5083759;28;19931;-64
2022/05/07 03:48:38;;;;;;;;;;;6.60;99.90;;;;;;5051136;28;19931;-64
2022/05/07 03:51:04;;;;;;;;;;;6.60;99.90;;;;;;5046959;28;19925;-64
2022/05/07 03:53:31;;;;;;;;;;;6.60;99.90;;;;;;5052410;28;20012;-64
2022/05/07 03:56:03;;;;;;;;;;;6.60;99.90;;;;;;5049827;28;19932;-64
2022/05/07 03:58:32;;;;;;;;;;;6.60;99.90;;;;;;5052702;28;19929;-64
2022/05/07 04:00:59;;;;;;;;;;;6.60;99.90;;;;;;5052211;28;19931;-64
2022/05/07 04:03:27;;;;;;;;;;;6.60;99.90;;;;;;5044926;28;19932;-64
2022/05/07 04:05:56;;;;;;;;;;;6.70;99.90;;;;;;5045826;28;19925;-64
2022/05/07 04:08:26;;;;;;;;;;;6.70;99.90;;;;;;5050940;28;20322;-64
2022/05/07 04:10:52;;;;;;;;;;;6.80;99.90;;;;;;5051076;28;19960;-64
2022/05/07 04:13:19;;;;;;;;;;;6.80;99.90;;;;;;5051814;28;19968;-64
2022/05/07 04:15:46;;;;;;;;;;;6.80;99.90;;;;;;5052299;28;19924;-64
2022/05/07 04:18:13;;;;;;;;;;;6.80;99.90;;;;;;5052250;28;20360;-64
2022/05/07 04:20:39;;;;;;;;;;;6.90;99.90;;;;;;5041097;28;19936;-64
2022/05/07 04:23:06;;;;;;;;;;;7.00;99.90;;;;;;5050228;28;20015;-64
2022/05/07 04:25:38;;;;;;;;;;;7.10;99.90;;;;;;5052061;28;19925;-64
2022/05/07 04:28:05;;;;;;;;;;;7.20;99.90;;;;;;5041223;28;19925;-64
2022/05/07 04:30:32;;;;;;;;;;;7.30;99.90;;;;;;5052663;28;19928;-64
2022/05/07 04:32:59;;;;;;;;;;;7.20;99.90;;;;;;5051791;28;19925;-64
2022/05/07 04:35:26;;;;;;;;;;;7.20;99.90;;;;;;5046161;28;22803;-64
2022/05/07 04:37:52;;;;;;;;;;;7.20;99.90;;;;;;5052406;28;19947;-64
2022/05/07 04:40:19;;;;;;;;;;;7.10;99.90;;;;;;5050676;28;20543;-64
2022/05/07 04:42:46;;;;;;;;;;;7.10;99.90;;;;;;5050756;28;19925;-65
2022/05/07 04:45:13;;;;;;;;;;;7.30;99.90;;;;;;5044572;28;19933;-64
2022/05/07 04:47:40;;;;;;;;;;;7.50;99.90;;;;;;5046776;28;19928;-64
2022/05/07 04:50:08;;;;;;;;;;;7.70;99.90;;;;;;5049778;28;19929;-64
2022/05/07 04:52:37;;;;;;;;;;;7.80;99.90;;;;;;5048003;28;19975;-64
2022/05/07 04:55:06;;;;;;;;;;;8.00;99.90;;;;;;5048344;28;19955;-64
2022/05/07 04:57:33;;;;;;;;;;;8.10;99.90;;;;;;5050360;28;20004;-64
2022/05/07 05:00:00;;;;;;;;;;;8.30;99.90;;;;;;5051880;28;19967;-64
2022/05/07 05:02:28;;;;;;;;;;;8.40;99.90;;;;;;5050451;28;20376;-64
2022/05/07 05:04:55;;;;;;;;;;;8.60;99.90;;;;;;5050334;28;19931;-64
2022/05/07 05:07:22;;;;;;;;;;;8.70;99.90;;;;;;5048018;28;19939;-64
2022/05/07 05:09:48;;;;;;;;;;;8.80;99.90;;;;;;5077176;28;19931;-64
2022/05/07 05:12:17;;;;;;;;;;;9.10;99.90;;;;;;5042669;28;19925;-64
2022/05/07 05:17:33;;;;;;;;;;;11.20;99.90;;;;;;5047879;28;19925;-64
2022/05/07 05:20:00;;;;;;;;;;;12.50;99.90;;;;;;5034812;28;20490;-64
2022/05/07 05:22:28;;;;;;;;;;;13.40;99.90;;;;;;5040373;28;19939;-64
2022/05/07 05:24:55;;;;;;;;;;;14.10;99.90;;;;;;5051150;28;19925;-64
2022/05/07 05:27:22;;;;;;;;;;;15.10;99.90;;;;;;5048846;28;20516;-65
2022/05/07 05:29:49;;;;;;;;;;;15.70;99.90;;;;;;5049360;28;19935;-64
2022/05/07 05:32:19;;;;;;;;;;;16.20;99.90;;;;;;5042508;28;19925;-64
2022/05/07 05:34:47;;;;;;;;;;;16.40;99.90;;;;;;5048167;28;19929;-65
2022/05/07 05:37:14;;;;;;;;;;;;;;;;;;5047581;28;19925;-63
2022/05/07 05:39:41;;;;;;;;;;;16.80;99.90;;;;;;5048312;28;19986;-63
2022/05/07 05:42:08;;;;;;;;;;;17.30;99.90;;;;;;5066235;28;20027;-63
2022/05/07 05:44:35;;;;;;;;;;;17.70;99.90;;;;;;5045759;28;19924;-63
2022/05/07 05:47:02;;;;;;;;;;;17.90;99.90;;;;;;5063271;28;19928;-64
2022/05/07 05:49:29;;;;;;;;;;;18.40;99.90;;;;;;5078025;28;20020;-64
2022/05/07 05:51:55;;;;;;;;;;;18.90;99.90;;;;;;5050386;28;20247;-64
2022/05/07 05:54:22;;;;;;;;;;;19.30;99.90;;;;;;5080573;28;19939;-64
2022/05/07 05:56:51;;;;;;;;;;;19.50;99.90;;;;;;5050309;28;20450;-64
2022/05/07 05:59:17;;;;;;;;;;;19.70;99.90;;;;;;5048757;28;19925;-63
2022/05/07 06:01:44;;;;;;;;;;;20.20;99.90;;;;;;5048974;28;19931;-63
2022/05/07 06:04:11;;;;;;;;;;;20.40;99.90;;;;;;5046769;28;20364;-63
2022/05/07 06:06:37;;;;;;;;;;;20.30;99.90;;;;;;5047010;28;19925;-64
2022/05/07 06:09:04;;;;;;;;;;;20.10;99.90;;;;;;5054437;28;19924;-63
2022/05/07 06:11:31;;;;;;;;;;;20.10;99.90;;;;;;5048672;28;19925;-63
2022/05/07 06:13:57;;;;;;;;;;;20.30;99.90;;;;;;5051655;28;20360;-63
2022/05/07 06:16:24;;;;;;;;;;;20.90;99.90;;;;;;5051572;28;19931;-63
2022/05/07 06:18:51;;;;;;;;;;;21.60;99.90;;;;;;5050332;28;19929;-63
2022/05/07 06:21:18;;;;;;;;;;;21.80;99.90;;;;;;5054614;28;20023;-63
2022/05/07 06:23:45;;;;;;;;;;;22.10;99.90;;;;;;5072566;28;20016;-63
2022/05/07 06:29:17;;;;;;;;;;;22.90;99.90;;;;;;4988213;28;19926;-64
2022/05/07 06:31:43;;;;;;;;;;;23.00;99.90;;;;;;4974532;28;20018;-64
2022/05/07 06:34:10;;;;;;;;;;;23.10;99.90;;;;;;4985662;28;19925;-64
2022/05/07 06:36:37;;;;;;;;;;;23.20;99.90;;;;;;4992090;28;19944;-64
2022/05/07 06:39:06;;;;;;;;;;;23.10;99.90;;;;;;4971415;28;20367;-64
2022/05/07 06:41:36;;;;;;;;;;;23.20;99.90;;;;;;4992124;28;20012;-64
2022/05/07 06:44:02;;;;;;;;;;;22.80;99.90;;;;;;4988128;28;20013;-64
2022/05/07 06:46:29;;;;;;;;;;;22.20;99.90;;;;;;4997460;28;19943;-64
2022/05/07 06:48:56;;;;;;;;;;;22.30;99.90;;;;;;4996367;28;19925;-65
2022/05/07 06:51:24;;;;;;;;;;;23.10;99.90;;;;;;4987754;28;19926;-64
2022/05/07 06:53:50;;;;;;;;;;;23.90;99.90;;;;;;4988711;28;19975;-68
2022/05/07 06:56:17;;;;;;;;;;;23.90;99.90;;;;;;4985425;28;20421;-70
2022/05/07 06:58:44;;;;;;;;;;;23.30;99.90;;;;;;4995343;28;20637;-71
2022/05/07 07:01:10;;;;;;;;;;;23.60;99.90;;;;;;5042611;28;19932;-71
2022/05/07 07:03:37;;;;;;;;;;;23.90;99.90;;;;;;5044913;28;20018;-71
2022/05/07 07:06:04;;;;;;;;;;;24.20;99.90;;;;;;5051398;28;20004;-71
2022/05/07 07:08:31;;;;;;;;;;;24.70;99.90;;;;;;5070754;28;19925;-71
2022/05/07 07:10:58;;;;;;;;;;;25.00;99.90;;;;;;5082342;28;19940;-70
2022/05/07 07:13:25;;;;;;;;;;;25.10;99.40;;;;;;5047038;28;19947;-68
2022/05/07 07:15:52;;;;;;;;;;;25.30;99.50;;;;;;5050880;28;20027;-67
2022/05/07 07:18:18;;;;;;;;;;;25.00;98.90;;;;;;5050705;28;19940;-68
2022/05/07 07:20:49;;;;;;;;;;;24.30;98.80;;;;;;5050416;28;19925;-68
2022/05/07 07:23:16;;;;;;;;;;;23.90;99.50;;;;;;5051041;28;19924;-67
2022/05/07 07:25:45;;;;;;;;;;;24.30;99.70;;;;;;5048428;28;19929;-67
2022/05/07 07:28:12;;;;;;;;;;;24.40;99.90;;;;;;5049143;28;20023;-67
2022/05/07 07:30:39;;;;;;;;;;;24.80;99.20;;;;;;5049217;28;19925;-68
2022/05/07 07:33:07;;;;;;;;;;;25.10;99.20;;;;;;5054705;28;19983;-68
2022/05/07 07:35:34;;;;;;;;;;;25.80;99.70;;;;;;5049210;28;19925;-67
2022/05/07 07:38:02;;;;;;;;;;;25.90;98.30;;;;;;5048554;28;19933;-67
2022/05/07 07:40:29;;;;;;;;;;;26.00;98.30;;;;;;5045714;28;19952;-67
2022/05/07 07:42:56;;;;;;;;;;;25.90;97.60;;;;;;5040957;28;20012;-68
2022/05/07 07:48:08;;;;;;;;;;;25.20;97.80;;;;;;5047886;28;19964;-64
2022/05/07 07:50:35;;;;;;;;;;;25.50;98.70;;;;;;5058546;28;20023;-72
2022/05/07 07:53:03;;;;;;;;;;;26.20;98.40;;;;;;5051612;28;19976;-71
2022/05/07 07:55:30;;;;;;;;;;;26.40;97.30;;;;;;5050053;28;19932;-75
2022/05/07 07:57:58;;;;;;;;;;;26.40;97.60;;;;;;5048524;28;19929;-69
2022/05/07 08:00:26;;;;;;;;;;;26.40;96.90;;;;;;5045825;28;19939;-70
2022/05/07 08:02:53;;;;;;;;;;;26.00;97.00;;;;;;5043366;28;19943;-69
2022/05/07 08:05:28;;;;;;;;;;;26.30;97.20;;;;;;5044117;28;19960;-69
2022/05/07 08:13:26;;;;;;;;;;;25.70;97.30;;;;;;5050335;28;19925;-69
2022/05/07 08:15:53;;;;;;;;;;;25.90;97.60;;;;;;5051151;28;20041;-69
2022/05/07 08:18:19;;;;;;;;;;;26.50;97.00;;;;;;5050340;28;19925;-70
2022/05/07 08:20:46;;;;;;;;;;;26.70;96.10;;;;;;5050468;28;19925;-72
2022/05/07 08:23:13;;;;;;;;;;;26.90;97.90;;;;;;5051407;28;19971;-70
2022/05/07 08:25:39;;;;;;;;;;;27.40;96.80;;;;;;5048496;28;19929;-71
2022/05/07 08:28:06;;;;;;;;;;;27.70;95.90;;;;;;5047965;28;20348;-71
2022/05/07 08:30:36;;;;;;;;;;;27.70;95.10;;;;;;5049441;28;19972;-70
2022/05/07 08:33:04;;;;;;;;;;;27.50;95.70;;;;;;5047939;28;19982;-70
2022/05/07 08:35:31;;;;;;;;;;;27.50;95.40;;;;;;5049367;28;19964;-68
2022/05/07 08:37:57;;;;;;;;;;;27.40;95.20;;;;;;5046907;28;19931;-74
2022/05/07 08:40:25;;;;;;;;;;;27.10;95.00;;;;;;5049261;28;20364;-71
2022/05/07 08:42:55;;;;;;;;;;;26.90;95.30;;;;;;5047330;28;19939;-70
2022/05/07 08:45:22;;;;;;;;;;;27.40;95.90;;;;;;5050121;28;19932;-70
2022/05/07 08:47:54;;;;;;;;;;;27.80;95.20;;;;;;5047677;28;19924;-73
2022/05/07 08:50:21;;;;;;;;;;;27.70;95.20;;;;;;5047062;28;19932;-72
2022/05/07 08:52:51;;;;;;;;;;;27.50;94.30;;;;;;5048505;28;20387;-74
2022/05/07 08:55:18;;;;;;;;;;;27.90;94.90;;;;;;5046228;28;19978;-72
2022/05/07 08:57:45;;;;;;;;;;;27.70;94.80;;;;;;5049190;28;19929;-72
2022/05/07 09:00:22;;;;;;;;;;;27.70;94.20;;;;;;5048524;28;19925;-73
2022/05/07 09:02:51;;;;;;;;;;;27.30;94.30;;;;;;5049821;28;19931;-72
2022/05/07 09:05:19;;;;;;;;;;;27.50;94.80;;;;;;5048758;28;20003;-73
2022/05/07 09:07:53;;;;;;;;;;;27.70;94.20;;;;;;5047165;28;20559;-72
2022/05/07 09:10:20;;;;;;;;;;;27.80;93.50;;;;;;5048858;28;20032;-72
2022/05/07 09:12:50;;;;;;;;;;;27.60;93.20;;;;;;5049103;28;19924;-71
2022/05/07 09:15:16;;;;;;;;;;;27.90;93.60;;;;;;5047745;28;19931;-72
2022/05/07 09:17:47;;;;;;;;;;;28.10;92.70;;;;;;5046234;28;20028;-72
2022/05/07 09:20:14;;;;;;;;;;;28.30;92.70;;;;;;5042325;28;19935;-71
2022/05/07 09:23:01;;;;;;;;;;;28.40;92.50;;;;;;5050831;28;19924;-72
2022/05/07 09:25:30;;;;;;;;;;;27.20;92.50;;;;;;5051371;28;19927;-73
2022/05/07 09:27:57;;;;;;;;;;;27.60;92.50;;;;;;5049406;28;19935;-73
2022/05/07 09:30:32;;;;;;;;;;;27.50;92.10;;;;;;5046760;28;20399;-73
2022/05/07 09:33:00;;;;;;;;;;;27.30;92.50;;;;;;5076177;28;19925;-73
2022/05/07 09:38:14;;;;;;;;;;;28.40;91.60;;;;;;5047929;28;20003;-69
2022/05/07 09:40:42;;;;;;;;;;;28.80;91.00;;;;;;5045678;28;19929;-75
2022/05/07 09:43:10;;;;;;;;;;;28.90;91.40;;;;;;5049374;28;19925;-75
2022/05/07 09:45:37;;;;;;;;;;;29.10;91.50;;;;;;5048357;28;19924;-78
2022/05/07 09:48:05;;;;;;;;;;;29.30;91.00;;;;;;5055767;28;19924;-78
2022/05/07 09:58:59;;;;;;;;;;;30.70;89.40;;;;;;5028673;28;19929;-79
2022/05/07 10:01:41;;;;;;;;;;;30.40;87.40;;;;;;5059661;28;20012;-74
2022/05/07 10:04:26;;;;;;;;;;;29.00;87.90;;;;;;5038984;28;19940;-74
2022/05/07 10:07:13;;;;;;;;;;;27.10;87.80;;;;;;5050150;28;19939;-79
2022/05/07 10:09:43;;;;;;;;;;;25.90;90.50;;;;;;5051543;28;20362;-76
2022/05/07 10:12:16;;;;;;;;;;;26.50;90.70;;;;;;5048866;28;19932;-77
2022/05/07 10:14:42;;;;;;;;;;;26.80;89.00;;;;;;5048944;28;20428;-77
2022/05/07 10:17:10;;;;;;;;;;;27.80;87.90;;;;;;5052705;28;19929;-64
2022/05/07 10:19:42;;;;;;;;;;;28.40;87.50;;;;;;5045076;28;20510;-64
2022/05/07 10:22:21;;;;;;;;;;;28.70;88.70;;;;;;5046659;28;19971;-63
2022/05/07 10:24:49;;;;;;;;;;;28.80;85.30;;;;;;5047246;28;19946;-63
2022/05/07 10:27:29;;;;;;;;;;;28.30;84.20;;;;;;5047701;28;19935;-64
2022/05/07 10:30:05;;;;;;;;;;;28.20;84.60;;;;;;5041836;28;19925;-64
2022/05/07 10:32:51;;;;;;;;;;;27.50;86.00;;;;;;5043828;28;19932;-63
2022/05/07 10:35:36;;;;;;;;;;;27.30;86.70;;;;;;5039814;28;19929;-64
2022/05/07 10:38:10;;;;;;;;;;;27.70;86.50;;;;;;5045717;28;19955;-63
2022/05/07 10:40:37;;;;;;;;;;;28.10;87.00;;;;;;5050761;28;20431;-63
2022/05/07 10:43:04;;;;;;;;;;;28.50;85.80;;;;;;5046751;28;21381;-64
2022/05/07 10:45:43;;;;;;;;;;;28.30;86.50;;;;;;5042617;28;19928;-64
2022/05/07 10:48:20;;;;;;;;;;;27.90;87.00;;;;;;5040651;28;19929;-64
2022/05/07 10:51:00;;;;;;;;;;;27.80;86.50;;;;;;5044956;28;19979;-64
2022/05/07 10:53:37;;;;;;;;;;;26.80;86.30;;;;;;5046508;28;19935;-63
2022/05/07 10:56:03;;;;;;;;;;;26.30;86.70;;;;;;5044430;28;19937;-63
2022/05/07 10:58:30;;;;;;;;;;;26.60;88.20;;;;;;5045144;28;19979;-64
2022/05/07 11:01:00;;;;;;;;;;;26.70;89.20;;;;;;5049043;28;19935;-65
2022/05/07 11:03:27;;;;;;;;;;;26.60;88.80;;;;;;5046370;28;19935;-64
2022/05/07 11:06:01;;;;;;;;;;;26.50;90.30;;;;;;5044112;28;19925;-64
2022/05/07 11:08:30;;;;;;;;;;;26.70;88.10;;;;;;5045733;28;19932;-64
2022/05/07 11:11:10;;;;;;;;;;;27.50;89.30;;;;;;5047384;28;20016;-65
2022/05/07 11:13:43;;;;;;;;;;;28.10;85.90;;;;;;5050942;28;19935;-62
2022/05/07 11:16:10;;;;;;;;;;;27.00;86.30;;;;;;5043667;28;20024;-62
2022/05/07 11:18:40;;;;;;;;;;;26.40;87.10;;;;;;5050059;28;20388;-62
2022/05/07 11:21:08;;;;;;;;;;;25.80;89.00;;;;;;5049518;28;19929;-61
2022/05/07 11:23:43;;;;;;;;;;;25.50;86.70;;;;;;5049124;28;20493;-63
2022/05/07 11:26:16;;;;;;;;;;;25.20;87.90;;;;;;5086509;28;19970;-62
2022/05/07 11:28:44;;;;;;;;;;;24.80;88.90;;;;;;5048417;28;20402;-63
2022/05/07 11:31:12;;;;;;;;;;;24.80;88.90;;;;;;5047567;28;19925;-62
2022/05/07 11:33:39;;;;;;;;;;;25.00;88.70;;;;;;5077105;28;19925;-62
2022/05/07 11:36:06;;;;;;;;;;;25.80;88.30;;;;;;5047720;28;20020;-63
2022/05/07 11:38:34;;;;;;;;;;;26.80;90.10;;;;;;5049837;28;19978;-63
2022/05/07 11:41:10;;;;;;;;;;;27.80;86.30;;;;;;5056013;28;19994;-63
2022/05/07 11:46:21;;;;;;;;;;;27.70;84.70;;;;;;5047600;28;20015;-62
2022/05/07 11:48:48;;;;;;;;;;;26.80;85.30;;;;;;5045743;28;19948;-64
2022/05/07 11:51:25;;;;;;;;;;;26.20;86.00;;;;;;5048376;28;20019;-64
2022/05/07 11:53:52;;;;;;;;;;;25.80;86.90;;;;;;5049888;28;19925;-64
2022/05/07 11:56:19;;;;;;;;;;;25.60;89.10;;;;;;5050877;28;19929;-64
2022/05/07 11:58:48;;;;;;;;;;;26.30;88.00;;;;;;5049338;28;20020;-64
2022/05/07 12:01:24;;;;;;;;;;;26.70;86.60;;;;;;5046981;28;20019;-65
2022/05/07 12:03:54;;;;;;;;;;;27.60;85.10;;;;;;5048896;28;19924;-64
2022/05/07 12:06:29;;;;;;;;;;;28.10;85.40;;;;;;5055429;28;20376;-64
2022/05/07 12:08:56;;;;;;;;;;;28.70;82.80;;;;;;5048138;28;19933;-64
2022/05/07 12:11:23;;;;;;;;;;;29.20;83.10;;;;;;5047749;28;19944;-64
2022/05/07 12:13:50;;;;;;;;;;;29.00;82.10;;;;;;5047627;28;19936;-63
2022/05/07 12:19:02;;;;;;;;;;;28.10;83.90;;;;;;5049894;28;19933;-63
2022/05/07 12:29:50;;;;;;;;;;;26.70;85.00;;;;;;5048753;28;19932;-63
2022/05/07 12:32:18;;;;;;;;;;;27.20;84.70;;;;;;5042747;28;20352;-64
2022/05/07 12:34:45;;;;;;;;;;;28.10;84.70;;;;;;5049688;28;20303;-64
2022/05/07 12:37:12;;;;;;;;;;;27.90;82.20;;;;;;5048818;28;19932;-64
2022/05/07 12:39:40;;;;;;;;;;;28.20;83.50;;;;;;5045952;28;20494;-63
2022/05/07 12:42:07;;;;;;;;;;;27.90;82.70;;;;;;5054189;28;19925;-64
2022/05/07 12:44:34;;;;;;;;;;;27.30;84.10;;;;;;5050777;28;19929;-64
2022/05/07 12:47:01;;;;;;;;;;;26.90;84.20;;;;;;5049381;28;19964;-66
2022/05/07 12:49:28;;;;;;;;;;;26.10;85.30;;;;;;5049678;28;19925;-65
2022/05/07 12:51:55;;;;;;;;;;;25.60;85.20;;;;;;5047250;28;19929;-66
2022/05/07 12:54:21;;;;;;;;;;;26.20;84.60;;;;;;5046865;28;20011;-66
2022/05/07 12:56:48;;;;;;;;;;;26.70;85.00;;;;;;5047130;28;19924;-66
2022/05/07 12:59:15;;;;;;;;;;;27.80;85.00;;;;;;5049566;28;20398;-66
2022/05/07 13:01:42;;;;;;;;;;;28.50;84.80;;;;;;5049228;28;19928;-66
2022/05/07 13:04:09;;;;;;;;;;;29.10;82.80;;;;;;5047356;28;19925;-65
2022/05/07 13:06:35;;;;;;;;;;;29.60;82.40;;;;;;5045305;28;19943;-66
2022/05/07 13:09:02;;;;;;;;;;;29.50;82.30;;;;;;5046737;28;19931;-66
2022/05/07 13:11:29;;;;;;;;;;;29.20;81.90;;;;;;5044109;28;19924;-67
2022/05/07 13:13:56;;;;;;;;;;;28.90;83.00;;;;;;5042948;28;19929;-64
2022/05/07 13:16:23;;;;;;;;;;;27.90;83.10;;;;;;5046548;28;19924;-66
2022/05/07 13:18:50;;;;;;;;;;;27.10;83.60;;;;;;5048069;28;19933;-66
2022/05/07 13:21:16;;;;;;;;;;;26.50;84.10;;;;;;5078611;28;19928;-66
2022/05/07 13:23:43;;;;;;;;;;;26.40;85.00;;;;;;5047804;28;19933;-66
2022/05/07 13:26:10;;;;;;;;;;;26.70;85.00;;;;;;5047215;28;20457;-65
2022/05/07 13:28:39;;;;;;;;;;;27.30;83.10;;;;;;5047758;28;20023;-66
2022/05/07 13:31:07;;;;;;;;;;;27.90;82.90;;;;;;5047420;28;19960;-65
2022/05/07 13:33:33;;;;;;;;;;;28.30;81.90;;;;;;5047433;28;19943;-65
2022/05/07 13:36:00;;;;;;;;;;;28.80;82.00;;;;;;5044936;28;19936;-66
2022/05/07 13:38:27;;;;;;;;;;;29.30;82.10;;;;;;5049172;28;19925;-66
2022/05/07 13:40:54;;;;;;;;;;;29.80;80.80;;;;;;5047041;28;20019;-74
2022/05/07 13:43:20;;;;;;;;;;;30.70;81.50;;;;;;5049362;28;19931;-69
2022/05/07 13:45:56;;;;;;;;;;;31.20;79.00;;;;;;5049491;28;20371;-68
2022/05/07 13:48:25;;;;;;;;;;;30.50;79.10;;;;;;5046950;28;20465;-78
2022/05/07 13:50:52;;;;;;;;;;;30.10;79.50;;;;;;5048149;28;19987;-70
2022/05/07 13:53:18;;;;;;;;;;;29.80;79.00;;;;;;5045208;28;20384;-71
2022/05/07 13:55:45;;;;;;;;;;;29.50;79.10;;;;;;5048727;28;19928;-70
2022/05/07 13:58:12;;;;;;;;;;;28.50;79.60;;;;;;5049090;28;19925;-68
2022/05/07 14:00:39;;;;;;;;;;;27.80;80.70;;;;;;5043728;28;19924;-69
2022/05/07 14:03:07;;;;;;;;;;;28.60;80.70;;;;;;5045630;28;19932;-68
2022/05/07 14:05:35;;;;;;;;;;;30.00;79.50;;;;;;5047536;28;20021;-69
2022/05/07 14:08:01;;;;;;;;;;;31.40;79.40;;;;;;5047403;28;19929;-70
2022/05/07 14:10:31;;;;;;;;;;;31.60;77.20;;;;;;5049665;28;20347;-68
2022/05/07 14:12:58;;;;;;;;;;;31.20;78.50;;;;;;5048673;28;19993;-68
2022/05/07 14:15:24;;;;;;;;;;;31.10;78.80;;;;;;5047106;28;19935;-68
2022/05/07 14:17:51;;;;;;;;;;;30.30;79.90;;;;;;5046121;28;20020;-74
2022/05/07 14:20:18;;;;;;;;;;;30.10;79.60;;;;;;5047761;28;20311;-69
2022/05/07 14:22:45;;;;;;;;;;;29.00;80.30;;;;;;5045196;28;20406;-69
2022/05/07 14:25:12;;;;;;;;;;;28.20;82.00;;;;;;5045109;28;19924;-76
2022/05/07 14:27:42;;;;;;;;;;;27.30;83.20;;;;;;5044836;28;19925;-70
2022/05/07 14:30:10;;;;;;;;;;;26.20;84.30;;;;;;5045875;28;19963;-73
2022/05/07 14:32:38;;;;;;;;;;;25.60;84.40;;;;;;5044696;28;19968;-68
2022/05/07 14:35:11;;;;;;;;;;;25.30;84.50;;;;;;5050261;28;20434;-70
2022/05/07 14:37:38;;;;;;;;;;;25.10;85.60;;;;;;5045553;28;20582;-72
2022/05/07 14:42:50;;;;;;;;;;;24.70;86.20;;;;;;5050631;28;19933;-68
2022/05/07 14:45:17;;;;;;;;;;;25.00;85.20;;;;;;5050821;28;19955;-69
2022/05/07 14:47:44;;;;;;;;;;;27.10;84.30;;;;;;5078996;28;19925;-68
2022/05/07 14:50:10;;;;;;;;;;;28.80;82.20;;;;;;5053233;28;19925;-69
2022/05/07 14:52:37;;;;;;;;;;;29.10;81.80;;;;;;5052843;28;19925;-68
2022/05/07 14:55:04;;;;;;;;;;;29.30;82.80;;;;;;5053810;28;19932;-77
2022/05/07 14:57:30;;;;;;;;;;;29.80;82.60;;;;;;5053615;28;19925;-69
2022/05/07 14:59:58;;;;;;;;;;;28.50;82.70;;;;;;5050867;28;19931;-68
2022/05/07 15:02:25;;;;;;;;;;;27.30;83.00;;;;;;5052335;28;19994;-67
2022/05/07 15:04:52;;;;;;;;;;;26.40;84.10;;;;;;5053368;28;19925;-68
2022/05/07 15:07:19;;;;;;;;;;;25.50;84.70;;;;;;5051280;28;19925;-68
2022/05/07 15:12:34;;;;;;;;;;;24.40;86.00;;;;;;5048775;28;19963;-68
2022/05/07 15:15:01;;;;;;;;;;;24.30;86.60;;;;;;5070512;28;19925;-69
2022/05/07 15:17:29;;;;;;;;;;;25.40;85.20;;;;;;5037268;28;20287;-70
2022/05/07 15:19:56;;;;;;;;;;;27.10;83.20;;;;;;5051773;28;19928;-69
2022/05/07 15:22:23;;;;;;;;;;;28.80;83.00;;;;;;5051752;28;19931;-68